Time;durP1;ratioP1;P1;durP2;ratioP2;P2;SDS_P1;SDS_P2;PMS_P1;PMS_P2;Temp;Humidity;BMP_temperature;BMP_pressure;BME280_temperature;BME280_humidity;BME280_pressure;Samples;Min_cycle;Max_cycle;Signal;HPM_P1;HPM_P2
2021/08/09 00:00:37;;;;;;;4.80;4.30;;;;;;;18.70;100.00;97941.38;5011511;28;20029;-80
2021/08/09 00:03:03;;;;;;;6.15;3.80;;;;;;;18.87;100.00;97947.81;5011847;28;20022;-80
2021/08/09 00:05:29;;;;;;;6.75;4.38;;;;;;;18.73;100.00;97947.41;5017462;28;20038;-81
2021/08/09 00:07:54;;;;;;;6.88;4.07;;;;;;;18.72;100.00;97949.38;5016103;28;20038;-79
2021/08/09 00:10:20;;;;;;;6.50;3.88;;;;;;;18.61;100.00;97939.88;5011239;28;20036;-79
2021/08/09 00:12:45;;;;;;;7.50;4.43;;;;;;;18.50;100.00;97947.06;5011752;28;20040;-79
2021/08/09 00:15:11;;;;;;;7.47;4.57;;;;;;;18.73;100.00;97948.22;5010485;28;20382;-79
2021/08/09 00:17:37;;;;;;;5.43;3.75;;;;;;;18.61;100.00;97950.97;5011261;28;20022;-79
2021/08/09 00:20:03;;;;;;;3.97;3.67;;;;;;;18.54;100.00;97942.47;5010111;28;20042;-82
2021/08/09 00:22:29;;;;;;;7.53;4.97;;;;;;;18.44;100.00;97934.56;5011024;28;20069;-81
2021/08/09 00:24:54;;;;;;;9.70;4.05;;;;;;;18.41;100.00;97946.34;5011152;28;20034;-78
2021/08/09 00:27:20;;;;;;;5.38;4.10;;;;;;;18.52;100.00;97942.78;5010015;28;20467;-79
2021/08/09 00:29:45;;;;;;;4.32;3.90;;;;;;;18.75;100.00;97937.56;5010714;28;20026;-79
2021/08/09 00:32:10;;;;;;;7.75;3.60;;;;;;;18.79;100.00;97946.81;5009475;28;20088;-79
2021/08/09 00:34:36;;;;;;;5.95;4.45;;;;;;;18.90;100.00;97952.66;5009919;28;20020;-79
2021/08/09 00:37:02;;;;;;;5.20;3.67;;;;;;;19.02;100.00;97960.97;5009494;28;20068;-79
2021/08/09 00:39:27;;;;;;;7.25;4.00;;;;;;;18.88;100.00;97955.81;5010806;28;20037;-79
2021/08/09 00:41:53;;;;;;;4.70;3.83;;;;;;;19.03;100.00;97957.03;5009501;28;20192;-78
2021/08/09 00:44:18;;;;;;;4.97;4.28;;;;;;;18.89;100.00;97967.72;5009997;28;20026;-80
2021/08/09 00:46:44;;;;;;;5.93;4.38;;;;;;;18.73;100.00;97970.38;5009870;28;20466;-78
2021/08/09 00:49:09;;;;;;;4.78;3.35;;;;;;;18.54;100.00;97964.63;5010978;28;20018;-78
2021/08/09 00:51:35;;;;;;;4.15;3.75;;;;;;;18.60;100.00;97977.09;5009826;28;20033;-79
2021/08/09 00:54:00;;;;;;;4.82;3.70;;;;;;;18.51;100.00;97977.19;5010229;28;20360;-78
2021/08/09 00:56:26;;;;;;;6.00;4.10;;;;;;;18.42;100.00;97981.22;5012704;28;20037;-82
2021/08/09 00:58:54;;;;;;;8.75;4.43;;;;;;;18.36;100.00;97977.84;5026305;28;20117;-79
2021/08/09 01:01:19;;;;;;;4.93;4.38;;;;;;;18.29;100.00;97974.88;5013634;28;20037;-79
2021/08/09 01:03:45;;;;;;;7.65;6.00;;;;;;;18.16;100.00;97968.50;5011139;28;20384;-81
2021/08/09 01:06:11;;;;;;;6.63;4.68;;;;;;;18.50;100.00;97985.84;5010189;28;20115;-82
2021/08/09 01:09:12;;;;;;;5.55;4.47;;;;;;;18.55;100.00;97985.63;5009505;28;20053;-82
2021/08/09 01:11:49;;;;;;;5.47;4.57;;;;;;;18.29;100.00;97983.16;5012686;28;20025;-81
2021/08/09 01:14:42;;;;;;;7.65;4.85;;;;;;;18.26;100.00;97983.88;5013380;28;20057;-79
2021/08/09 01:17:10;;;;;;;6.22;4.50;;;;;;;18.23;100.00;97992.84;5013179;28;20144;-79
2021/08/09 01:19:39;;;;;;;6.50;5.50;;;;;;;18.14;100.00;97989.34;5012945;28;20048;-79
2021/08/09 01:22:25;;;;;;;8.30;5.90;;;;;;;18.04;100.00;97985.06;5012996;28;20107;-82
2021/08/09 01:25:37;;;;;;;8.77;5.53;;;;;;;18.06;100.00;97991.09;5012857;28;20034;-81
2021/08/09 01:28:06;;;;;;;7.07;5.45;;;;;;;18.18;100.00;97990.28;4994328;28;20521;-81
2021/08/09 01:30:32;;;;;;;6.25;5.20;;;;;;;18.27;100.00;97990.19;5012695;28;20022;-78
2021/08/09 01:32:58;;;;;;;5.60;5.00;;;;;;;18.34;100.00;97993.19;5014310;28;20026;-80
2021/08/09 01:35:26;;;;;;;8.13;5.30;;;;;;;18.46;100.00;97993.22;5013724;28;20041;-78
2021/08/09 01:37:54;;;;;;;6.97;5.53;;;;;;;18.34;100.00;97996.78;5012315;28;20030;-82
2021/08/09 01:40:21;;;;;;;5.45;4.60;;;;;;;18.42;100.00;98003.38;5012607;28;20032;-78
2021/08/09 01:42:48;;;;;;;5.25;4.57;;;;;;;18.36;100.00;98007.50;5014098;28;20065;-80
2021/08/09 01:45:14;;;;;;;7.88;4.53;;;;;;;18.37;100.00;98011.91;5014102;28;20061;-82
2021/08/09 01:47:41;;;;;;;6.15;4.40;;;;;;;18.40;100.00;98011.22;5012243;28;20470;-81
2021/08/09 01:50:08;;;;;;;6.30;4.28;;;;;;;18.44;100.00;98012.16;5012388;28;20107;-80
2021/08/09 01:52:35;;;;;;;6.85;4.35;;;;;;;18.34;100.00;98013.41;5012611;28;20030;-80
2021/08/09 01:55:01;;;;;;;10.52;6.38;;;;;;;18.46;100.00;98018.94;5012680;28;20037;-81
2021/08/09 01:57:27;;;;;;;6.57;4.53;;;;;;;18.31;100.00;98016.03;5013690;28;20140;-80
2021/08/09 01:59:53;;;;;;;6.45;5.00;;;;;;;18.22;100.00;98020.88;5012230;28;20116;-79
2021/08/09 02:02:31;;;;;;;8.88;4.88;;;;;;;18.17;100.00;98031.03;5012391;28;20034;-81
2021/08/09 02:05:04;;;;;;;5.38;4.63;;;;;;;18.10;100.00;98025.25;5013914;28;20112;-82
2021/08/09 02:07:29;;;;;;;5.55;4.78;;;;;;;18.16;100.00;98034.16;5013798;28;20374;-79
2021/08/09 02:09:55;;;;;;;13.77;4.80;;;;;;;18.23;100.00;98028.03;5013394;28;20042;-81
2021/08/09 02:12:20;;;;;;;5.30;4.78;;;;;;;18.20;100.00;98030.34;5013132;28;20018;-79
2021/08/09 02:14:53;;;;;;;4.50;4.05;;;;;;;18.08;100.00;98035.03;5012075;28;20037;-78
2021/08/09 02:17:32;;;;;;;8.73;6.55;;;;;;;17.95;100.00;98030.63;5012033;28;20030;-79
2021/08/09 02:20:03;;;;;;;7.35;4.65;;;;;;;17.95;100.00;98039.72;5008564;28;20033;-79
2021/08/09 02:23:01;;;;;;;8.55;5.20;;;;;;;17.87;100.00;98034.28;5011887;28;20022;-79
2021/08/09 02:25:32;;;;;;;5.65;4.72;;;;;;;18.06;100.00;98051.19;5000678;28;20038;-80
2021/08/09 02:28:14;;;;;;;7.00;5.47;;;;;;;17.86;100.00;98052.84;5012232;28;20022;-79
2021/08/09 02:30:51;;;;;;;8.85;6.00;;;;;;;17.94;100.00;98053.91;5011743;28;20046;-80
2021/08/09 02:33:20;;;;;;;6.13;4.78;;;;;;;17.97;100.00;98061.53;5012158;28;20034;-79
2021/08/09 02:35:49;;;;;;;5.85;4.20;;;;;;;18.05;100.00;98055.91;5011830;28;20029;-81
2021/08/09 02:38:14;;;;;;;7.95;5.10;;;;;;;17.91;100.00;98055.41;5011683;28;20046;-80
2021/08/09 02:40:41;;;;;;;8.65;4.88;;;;;;;17.85;100.00;98054.00;5012535;28;20064;-78
2021/08/09 02:43:08;;;;;;;7.80;5.85;;;;;;;17.80;100.00;98064.47;5011566;28;20046;-81
2021/08/09 02:45:34;;;;;;;9.40;5.03;;;;;;;17.77;100.00;98063.19;5013213;28;20036;-78
2021/08/09 02:48:01;;;;;;;9.75;4.95;;;;;;;17.84;100.00;98069.00;5011558;28;20149;-80
2021/08/09 02:50:27;;;;;;;5.85;4.93;;;;;;;17.90;100.00;98072.34;5011640;28;20080;-78
2021/08/09 02:52:53;;;;;;;6.22;5.38;;;;;;;17.81;100.00;98069.66;5012607;28;20017;-78
2021/08/09 02:55:20;;;;;;;27.42;7.45;;;;;;;17.79;100.00;98079.47;5011236;28;20045;-80
2021/08/09 02:57:48;;;;;;;6.55;5.10;;;;;;;17.72;100.00;98085.53;5011646;28;20071;-78
2021/08/09 03:00:14;;;;;;;8.93;6.03;;;;;;;17.80;100.00;98079.09;5012152;28;20531;-79
2021/08/09 03:02:42;;;;;;;5.30;4.75;;;;;;;17.89;100.00;98079.84;5012105;28;20117;-79
2021/08/09 03:05:10;;;;;;;9.07;4.93;;;;;;;18.13;100.00;98092.97;5011314;28;20026;-78
2021/08/09 03:07:37;;;;;;;6.20;5.05;;;;;;;18.16;100.00;98095.06;5011330;28;20030;-80
2021/08/09 03:10:10;;;;;;;5.10;4.57;;;;;;;18.23;100.00;98100.84;5011769;28;20029;-79
2021/08/09 03:12:36;;;;;;;8.85;4.65;;;;;;;18.17;100.00;98107.75;5011231;28;20113;-79
2021/08/09 03:15:03;;;;;;;6.88;5.30;;;;;;;18.14;100.00;98112.00;5015649;28;20025;-81
2021/08/09 03:17:28;;;;;;;5.32;4.78;;;;;;;18.09;100.00;98109.47;5019142;28;20033;-80
2021/08/09 03:19:54;;;;;;;5.55;4.78;;;;;;;18.05;100.00;98110.47;5012821;28;20030;-80
2021/08/09 03:22:20;;;;;;;9.38;5.20;;;;;;;18.02;100.00;98114.72;5012525;28;20135;-79
2021/08/09 03:24:45;;;;;;;10.25;5.70;;;;;;;18.09;100.00;98117.75;5011024;28;20438;-80
2021/08/09 03:27:11;;;;;;;7.80;5.43;;;;;;;18.10;100.00;98118.59;5010697;28;20037;-79
2021/08/09 03:29:36;;;;;;;5.82;5.13;;;;;;;18.08;100.00;98116.13;5010781;28;20064;-83
2021/08/09 03:32:04;;;;;;;7.57;5.63;;;;;;;18.05;100.00;98114.06;5012060;28;20033;-81
2021/08/09 03:34:29;;;;;;;10.88;6.05;;;;;;;18.00;100.00;98125.34;5010182;28;20014;-80
2021/08/09 03:36:54;;;;;;;9.93;6.03;;;;;;;18.02;100.00;98130.53;5010093;28;20549;-81
2021/08/09 03:39:21;;;;;;;7.85;5.38;;;;;;;18.01;100.00;98135.25;5010319;28;20112;-80
2021/08/09 03:41:46;;;;;;;8.52;6.32;;;;;;;18.15;100.00;98135.78;5011550;28;20088;-78
2021/08/09 03:44:12;;;;;;;12.35;7.35;;;;;;;18.29;100.00;98135.50;5011854;28;20026;-78
2021/08/09 03:46:38;;;;;;;7.82;5.70;;;;;;;18.26;100.00;98138.94;5011232;28;20022;-78
2021/08/09 03:49:07;;;;;;;8.00;6.03;;;;;;;18.32;100.00;98142.31;5010322;28;20056;-78
2021/08/09 03:51:33;;;;;;;7.40;5.45;;;;;;;18.44;100.00;98145.13;5010325;28;20038;-80
2021/08/09 03:53:59;;;;;;;7.72;5.47;;;;;;;18.15;100.00;98149.63;5010226;28;20105;-79
2021/08/09 03:56:24;;;;;;;7.47;6.10;;;;;;;18.26;100.00;98160.28;5011576;28;20116;-80
2021/08/09 03:58:50;;;;;;;6.00;4.50;;;;;;;18.19;100.00;98156.13;5010635;28;20026;-79
2021/08/09 04:01:16;;;;;;;8.93;4.53;;;;;;;18.28;100.00;98163.53;5010004;28;20041;-79
2021/08/09 04:03:42;;;;;;;6.32;5.38;;;;;;;18.45;100.00;98160.59;5010598;28;20084;-79
2021/08/09 04:06:07;;;;;;;6.85;5.57;;;;;;;18.49;100.00;98164.28;5010476;28;20025;-82
2021/08/09 04:08:33;;;;;;;8.10;5.72;;;;;;;18.33;100.00;98177.16;5010063;28;20519;-81
2021/08/09 04:10:58;;;;;;;12.13;6.25;;;;;;;18.20;100.00;98177.09;5015259;28;20056;-80
2021/08/09 04:13:23;;;;;;;11.45;6.97;;;;;;;18.22;100.00;98181.50;5015642;28;20026;-81
2021/08/09 04:15:49;;;;;;;7.40;5.78;;;;;;;18.19;100.00;98172.72;5014532;28;20030;-80
2021/08/09 04:18:14;;;;;;;5.82;5.10;;;;;;;18.24;100.00;98176.41;5010141;28;20030;-79
2021/08/09 04:20:40;;;;;;;7.63;5.63;;;;;;;18.23;100.00;98183.13;5009809;28;20348;-79
2021/08/09 04:23:06;;;;;;;9.73;5.20;;;;;;;18.19;100.00;98183.81;5010085;28;20036;-78
2021/08/09 04:25:31;;;;;;;7.63;6.40;;;;;;;18.19;100.00;98189.34;5011055;28;20458;-80
2021/08/09 04:27:57;;;;;;;5.78;4.93;;;;;;;18.18;100.00;98182.19;5009507;28;20493;-80
2021/08/09 04:30:22;;;;;;;6.82;4.88;;;;;;;18.15;100.00;98191.16;5009330;28;20040;-79
2021/08/09 04:32:48;;;;;;;6.15;5.50;;;;;;;18.19;100.00;98186.56;5009987;28;20034;-79
2021/08/09 04:35:14;;;;;;;7.93;5.95;;;;;;;18.14;100.00;98197.03;5006723;28;20029;-79
2021/08/09 04:37:40;;;;;;;5.60;4.95;;;;;;;18.15;100.00;98191.16;4992115;28;20398;-79
2021/08/09 04:40:07;;;;;;;6.55;5.10;;;;;;;18.20;100.00;98202.03;4989729;28;20030;-81
2021/08/09 04:42:32;;;;;;;5.88;5.32;;;;;;;18.38;100.00;98201.88;5005849;28;20042;-78
2021/08/09 04:44:58;;;;;;;7.00;5.43;;;;;;;18.50;100.00;98208.31;4992312;28;20030;-81
2021/08/09 04:47:23;;;;;;;10.38;5.78;;;;;;;18.43;100.00;98209.97;5010476;28;20018;-80
2021/08/09 04:49:49;;;;;;;7.63;5.25;;;;;;;18.40;100.00;98213.44;5010667;28;20073;-80
2021/08/09 04:52:15;;;;;;;7.65;4.85;;;;;;;18.49;100.00;98214.16;5010127;28;20058;-79
2021/08/09 04:54:41;;;;;;;6.78;4.78;;;;;;;18.55;100.00;98226.66;5013263;28;20038;-79
2021/08/09 04:57:06;;;;;;;7.07;5.85;;;;;;;18.63;100.00;98220.25;5013080;28;20566;-80
2021/08/09 04:59:34;;;;;;;10.20;5.68;;;;;;;18.73;100.00;98230.91;5014597;28;20433;-82
2021/08/09 05:01:59;;;;;;;8.10;4.82;;;;;;;18.93;100.00;98234.75;5013513;28;20048;-82
2021/08/09 05:04:24;;;;;;;8.23;5.35;;;;;;;18.94;100.00;98231.66;5012943;28;20022;-79
2021/08/09 05:06:50;;;;;;;7.45;4.85;;;;;;;18.89;100.00;98228.31;5014422;28;20041;-83
2021/08/09 05:09:15;;;;;;;7.65;4.85;;;;;;;19.18;100.00;98244.75;5013045;28;20030;-79
2021/08/09 05:11:41;;;;;;;8.15;5.60;;;;;;;19.05;100.00;98241.16;5013393;28;20091;-81
2021/08/09 05:14:07;;;;;;;7.43;4.63;;;;;;;19.19;100.00;98241.66;5013058;28;20033;-80
2021/08/09 05:16:34;;;;;;;8.75;5.30;;;;;;;19.29;100.00;98248.72;5013390;28;20053;-80
2021/08/09 05:19:03;;;;;;;12.73;5.05;;;;;;;19.22;100.00;98238.19;5013118;28;20030;-79
2021/08/09 05:21:30;;;;;;;7.35;4.70;;;;;;;19.11;100.00;98253.63;5012649;28;20038;-80
2021/08/09 05:23:57;;;;;;;5.80;4.90;;;;;;;19.13;100.00;98250.53;5014210;28;20034;-81
2021/08/09 05:26:22;;;;;;;5.72;4.50;;;;;;;19.13;100.00;98251.34;5014858;28;20026;-81
2021/08/09 05:28:48;;;;;;;5.18;4.60;;;;;;;19.09;100.00;98244.03;5013608;28;20029;-81
2021/08/09 05:31:13;;;;;;;12.27;4.65;;;;;;;19.02;100.00;98252.13;4999996;28;21657;-81
2021/08/09 05:33:39;;;;;;;7.13;5.13;;;;;;;19.10;100.00;98256.78;4998042;28;20109;-83
2021/08/09 05:36:05;;;;;;;5.00;4.50;;;;;;;19.17;100.00;98260.59;5000056;28;20037;-80
2021/08/09 05:38:31;;;;;;;8.70;4.65;;;;;;;19.26;100.00;98263.28;5000637;28;20037;-75
2021/08/09 05:40:57;;;;;;;7.57;4.85;;;;;;;19.35;100.00;98265.94;4997939;28;20023;-76
2021/08/09 05:43:22;;;;;;;7.22;4.38;;;;;;;19.40;100.00;98272.09;4994200;28;20101;-77
2021/08/09 05:45:48;;;;;;;7.82;4.70;;;;;;;19.34;100.00;98262.34;4993165;28;20034;-78
2021/08/09 05:48:13;;;;;;;5.78;4.20;;;;;;;19.48;99.97;98284.25;4997205;28;20034;-78
2021/08/09 05:50:39;;;;;;;5.75;4.00;;;;;;;19.73;98.29;98283.13;4993937;28;20129;-79
2021/08/09 05:53:05;;;;;;;7.00;5.70;;;;;;;19.76;97.14;98271.31;4992295;28;20476;-76
2021/08/09 05:55:32;;;;;;;7.25;4.20;;;;;;;19.82;97.19;98278.25;4992161;28;20034;-77
2021/08/09 05:57:58;;;;;;;5.90;4.05;;;;;;;19.91;96.47;98278.94;4993673;28;20088;-79
2021/08/09 06:00:23;;;;;;;5.00;4.22;;;;;;;19.92;95.64;98280.56;4994027;28;20054;-76
2021/08/09 06:02:49;;;;;;;5.88;4.78;;;;;;;20.03;94.33;98278.91;4996553;28;20018;-79
2021/08/09 06:05:15;;;;;;;8.35;4.57;;;;;;;19.95;94.49;98274.31;5008772;28;20034;-77
2021/08/09 06:07:40;;;;;;;6.65;3.97;;;;;;;20.08;93.81;98291.78;5000483;28;20052;-76
2021/08/09 06:10:07;;;;;;;10.40;4.35;;;;;;;20.16;91.97;98291.63;5011895;28;20467;-75
2021/08/09 06:12:33;;;;;;;126.80;89.85;;;;;;;20.20;91.27;98292.53;5008153;28;20088;-78
2021/08/09 06:14:59;;;;;;;5.45;4.20;;;;;;;20.65;90.37;98300.69;5012832;28;20029;-75
2021/08/09 06:17:24;;;;;;;5.20;3.78;;;;;;;20.70;89.61;98296.88;5008142;28;20033;-75
2021/08/09 06:19:50;;;;;;;10.70;4.82;;;;;;;20.53;88.86;98299.91;4995234;28;20031;-77
2021/08/09 06:22:15;;;;;;;6.40;5.30;;;;;;;20.49;88.77;98304.56;4992609;28;20033;-75
2021/08/09 06:24:42;;;;;;;8.13;4.97;;;;;;;20.44;88.32;98304.81;5010919;28;20029;-76
2021/08/09 06:27:07;;;;;;;6.28;3.30;;;;;;;20.71;88.55;98309.59;5010039;28;20402;-75
2021/08/09 06:29:33;;;;;;;13.50;10.38;;;;;;;20.65;87.18;98311.81;5010163;28;20026;-75
2021/08/09 06:31:58;;;;;;;5.32;3.40;;;;;;;20.54;88.21;98321.00;5011890;28;20467;-74
2021/08/09 06:34:25;;;;;;;9.18;4.43;;;;;;;20.43;88.85;98311.50;5009806;28;20036;-74
2021/08/09 06:36:50;;;;;;;7.43;2.92;;;;;;;20.42;87.82;98321.84;5010273;28;20026;-74
2021/08/09 06:39:19;;;;;;;9.70;4.53;;;;;;;20.39;87.58;98307.84;5014662;28;20018;-74
2021/08/09 06:41:45;;;;;;;18.30;6.57;;;;;;;20.28;86.63;98319.44;5010830;28;20054;-76
2021/08/09 06:44:11;;;;;;;18.98;11.60;;;;;;;20.32;89.08;98324.28;5011553;28;20026;-74
2021/08/09 06:46:36;;;;;;;9.30;2.92;;;;;;;20.12;87.34;98320.47;5012071;28;20030;-74
2021/08/09 06:49:04;;;;;;;6.47;3.10;;;;;;;20.21;86.40;98319.16;5009903;28;20025;-76
2021/08/09 06:51:29;;;;;;;5.78;3.13;;;;;;;20.15;85.83;98316.97;5008503;28;20022;-74
2021/08/09 06:53:54;;;;;;;9.75;5.32;;;;;;;20.23;88.97;98329.94;4993194;28;20068;-74
2021/08/09 06:56:20;;;;;;;5.60;2.78;;;;;;;20.18;86.97;98322.66;5009694;28;20067;-75
2021/08/09 06:58:45;;;;;;;4.07;3.03;;;;;;;20.34;88.39;98328.34;5009669;28;20364;-74
2021/08/09 07:01:14;;;;;;;3.78;2.47;;;;;;;20.47;85.75;98331.91;5011626;28;20038;-76
2021/08/09 07:03:39;;;;;;;6.53;2.95;;;;;;;20.36;86.03;98328.00;5009211;28;20032;-74
2021/08/09 07:06:05;;;;;;;14.27;3.22;;;;;;;20.40;86.06;98337.22;5010484;28;20406;-75
2021/08/09 07:08:30;;;;;;;4.20;2.92;;;;;;;20.43;82.48;98339.31;5009871;28;20041;-76
2021/08/09 07:10:56;;;;;;;7.22;3.83;;;;;;;20.60;82.19;98341.84;5009084;28;20395;-74
2021/08/09 07:13:21;;;;;;;2.97;2.25;;;;;;;20.54;80.32;98346.03;5010297;28;20103;-75
2021/08/09 07:15:47;;;;;;;4.22;1.60;;;;;;;20.51;78.78;98346.72;5011063;28;20029;-75
2021/08/09 07:18:14;;;;;;;3.40;2.05;;;;;;;20.67;77.05;98358.75;5009403;28;20084;-74
2021/08/09 07:20:39;;;;;;;6.45;1.50;;;;;;;20.66;75.77;98357.09;5009240;28;20026;-74
2021/08/09 07:23:05;;;;;;;2.15;1.63;;;;;;;20.68;74.65;98363.13;5009434;28;20056;-74
2021/08/09 07:25:32;;;;;;;4.68;1.88;;;;;;;20.93;76.09;98367.44;5008878;28;20106;-74
2021/08/09 07:27:58;;;;;;;6.35;1.85;;;;;;;20.92;75.08;98359.47;5008911;28;20014;-74
2021/08/09 07:30:23;;;;;;;4.32;0.82;;;;;;;20.79;70.58;98355.91;5006360;28;20024;-75
2021/08/09 07:32:48;;;;;;;4.05;1.00;;;;;;;20.90;69.44;98364.56;5008694;28;20077;-76
2021/08/09 07:35:14;;;;;;;4.05;1.45;;;;;;;21.15;70.86;98372.50;5008527;28;20087;-75
2021/08/09 07:37:39;;;;;;;5.40;4.45;;;;;;;21.43;68.65;98366.09;5007647;28;20091;-77
2021/08/09 07:40:06;;;;;;;2.65;1.88;;;;;;;22.08;65.60;98367.44;5009093;28;20057;-75
2021/08/09 07:42:31;;;;;;;3.65;1.50;;;;;;;22.65;62.92;98366.78;5007972;28;20498;-74
2021/08/09 07:44:57;;;;;;;1.35;0.80;;;;;;;23.01;61.91;98369.22;5008594;28;20034;-76
2021/08/09 07:47:23;;;;;;;1.50;0.93;;;;;;;22.83;63.60;98371.63;5009766;28;20103;-76
2021/08/09 07:49:48;;;;;;;2.30;1.05;;;;;;;22.47;64.86;98376.72;5012688;28;20064;-75
2021/08/09 07:52:13;;;;;;;2.33;1.23;;;;;;;22.85;62.29;98374.03;5007474;28;20033;-75
2021/08/09 07:54:39;;;;;;;9.50;1.48;;;;;;;23.54;59.25;98375.88;5008019;28;20038;-76
2021/08/09 07:57:06;;;;;;;3.05;1.40;;;;;;;23.62;58.03;98388.00;5007338;28;20037;-76
2021/08/09 07:59:33;;;;;;;1.73;1.35;;;;;;;23.69;58.43;98380.56;5009105;28;20049;-77
2021/08/09 08:02:04;;;;;;;3.67;1.20;;;;;;;24.58;56.79;98390.47;5007261;28;20546;-74
2021/08/09 08:04:30;;;;;;;3.78;1.40;;;;;;;24.17;56.75;98386.63;5005908;28;20026;-74
2021/08/09 08:06:56;;;;;;;3.42;1.33;;;;;;;24.03;57.64;98378.75;5008531;28;20068;-73
2021/08/09 08:09:21;;;;;;;1.48;1.10;;;;;;;24.06;56.62;98389.19;5007584;28;20089;-73
2021/08/09 08:11:47;;;;;;;2.17;1.08;;;;;;;25.02;55.12;98391.53;5010627;28;20022;-76
2021/08/09 08:14:13;;;;;;;2.75;0.93;;;;;;;24.96;55.33;98395.84;5020698;28;20509;-75
2021/08/09 08:16:38;;;;;;;1.45;1.17;;;;;;;24.87;56.17;98400.94;5023539;28;20022;-75
2021/08/09 08:19:04;;;;;;;1.60;1.00;;;;;;;24.64;55.46;98397.34;5009315;28;20034;-75
2021/08/09 08:21:30;;;;;;;5.78;0.90;;;;;;;25.88;52.90;98399.75;5008901;28;20025;-73
2021/08/09 08:23:55;;;;;;;2.67;1.35;;;;;;;25.84;51.98;98390.53;5009540;28;20024;-75
2021/08/09 08:26:21;;;;;;;4.57;1.10;;;;;;;24.73;54.69;98383.91;5008455;28;20018;-74
2021/08/09 08:28:46;;;;;;;1.20;0.90;;;;;;;24.82;55.59;98395.66;5008579;28;20049;-73
2021/08/09 08:31:12;;;;;;;2.22;1.05;;;;;;;24.14;55.73;98396.56;5009912;28;20136;-73
2021/08/09 08:33:37;;;;;;;1.10;0.93;;;;;;;24.30;56.60;98388.03;5008011;28;20084;-75
2021/08/09 08:36:03;;;;;;;1.67;1.27;;;;;;;25.10;53.73;98390.44;5008147;28;20037;-76
2021/08/09 08:38:28;;;;;;;1.85;1.10;;;;;;;26.66;49.52;98394.84;5008306;28;20037;-78
2021/08/09 08:40:55;;;;;;;3.10;0.98;;;;;;;27.45;46.96;98392.91;5007975;28;20108;-75
2021/08/09 08:43:27;;;;;;;1.30;0.82;;;;;;;27.24;47.54;98391.97;5005214;28;20479;-74
2021/08/09 08:46:07;;;;;;;0.52;0.52;;;;;;;27.44;48.89;98396.91;5009897;28;20032;-75
2021/08/09 08:48:34;;;;;;;5.18;0.98;;;;;;;26.35;49.14;98391.41;5007318;28;20030;-74
2021/08/09 08:51:03;;;;;;;1.17;0.73;;;;;;;25.64;51.33;98386.31;5006864;28;20080;-75
2021/08/09 08:53:35;;;;;;;1.60;1.23;;;;;;;25.65;51.88;98385.94;5006604;28;20022;-75
2021/08/09 08:56:05;;;;;;;3.42;1.05;;;;;;;24.63;53.25;98390.94;5007780;28;20100;-74
2021/08/09 08:58:30;;;;;;;2.25;1.20;;;;;;;25.31;53.25;98392.72;5005233;28;20057;-74
2021/08/09 09:00:56;;;;;;;2.65;0.88;;;;;;;24.53;53.97;98403.59;5006611;28;20145;-77
2021/08/09 09:03:23;;;;;;;1.35;0.77;;;;;;;24.86;53.83;98393.72;5005866;28;20433;-75
2021/08/09 09:06:01;;;;;;;1.00;0.90;;;;;;;25.75;52.16;98392.84;5008525;28;20026;-77
2021/08/09 09:08:49;;;;;;;1.80;1.08;;;;;;;27.37;47.84;98394.06;5006453;28;20044;-76
2021/08/09 09:11:38;;;;;;;5.07;0.80;;;;;;;26.93;47.51;98387.81;5006578;28;20079;-76
2021/08/09 09:14:05;;;;;;;0.60;0.60;;;;;;;28.09;45.19;98387.47;5005019;28;20514;-74
2021/08/09 09:16:48;;;;;;;1.23;0.63;;;;;;;27.06;46.94;98391.91;5018853;28;20117;-75
2021/08/09 09:19:37;;;;;;;1.15;0.70;;;;;;;26.45;48.24;98375.84;5016460;28;20037;-74
2021/08/09 09:22:07;;;;;;;2.28;0.55;;;;;;;27.57;44.84;98381.28;5012157;28;20771;-73
2021/08/09 09:24:33;;;;;;;0.80;0.80;;;;;;;26.79;47.40;98371.66;5016830;28;20054;-74
2021/08/09 09:27:08;;;;;;;1.20;1.10;;;;;;;26.64;47.42;98375.56;5013321;28;20482;-77
2021/08/09 09:29:40;;;;;;;2.03;0.83;;;;;;;28.05;44.28;98381.00;5017013;28;20853;-75
2021/08/09 09:32:26;;;;;;;5.13;3.55;;;;;;;28.55;44.01;98374.16;5018191;28;20703;-74
2021/08/09 09:34:52;;;;;;;;;;;;;;;27.63;44.33;98371.25;5017594;28;20038;-77
2021/08/09 09:37:29;;;;;;;1.00;0.88;;;;;;;26.45;47.40;98368.22;5011039;28;19988;-75
2021/08/09 09:40:07;;;;;;;0.70;0.70;;;;;;;26.48;47.35;98352.63;5009413;28;20034;-76
2021/08/09 09:42:34;;;;;;;0.52;0.52;;;;;;;27.30;44.06;98367.91;5007715;28;20121;-76
2021/08/09 09:45:18;;;;;;;2.42;0.63;;;;;;;28.75;40.67;98368.13;5009621;28;20376;-77
2021/08/09 09:47:44;;;;;;;1.80;0.60;;;;;;;28.11;42.25;98366.16;5009738;28;20030;-77
2021/08/09 09:50:24;;;;;;;2.60;1.02;;;;;;;28.55;43.18;98373.38;5009770;28;20029;-74
2021/08/09 09:52:49;;;;;;;0.90;0.68;;;;;;;28.25;42.41;98365.34;5005140;28;20398;-75
2021/08/09 09:55:16;;;;;;;0.95;0.70;;;;;;;28.53;41.84;98356.06;5009971;28;20022;-75
2021/08/09 09:57:43;;;;;;;1.23;1.08;;;;;;;29.19;39.98;98354.31;5009252;28;20494;-74
2021/08/09 10:00:11;;;;;;;0.55;0.55;;;;;;;28.46;41.59;98353.25;5011091;28;20021;-75
2021/08/09 10:02:39;;;;;;;1.08;0.73;;;;;;;27.71;43.66;98343.16;5012006;28;20031;-76
2021/08/09 10:05:05;;;;;;;1.08;0.65;;;;;;;27.42;44.02;98345.88;5015776;28;20024;-75
2021/08/09 10:07:31;;;;;;;1.17;0.70;;;;;;;28.90;43.32;98344.34;5009048;28;20040;-74
2021/08/09 10:10:00;;;;;;;1.08;0.80;;;;;;;29.94;38.58;98347.09;5009992;28;20052;-73
2021/08/09 10:12:29;;;;;;;0.90;0.70;;;;;;;29.80;39.42;98354.81;5008546;28;20018;-75
2021/08/09 10:14:55;;;;;;;1.05;1.00;;;;;;;30.75;37.27;98351.22;5008417;28;20474;-74
2021/08/09 10:17:24;;;;;;;0.77;0.70;;;;;;;30.21;37.82;98352.91;5010482;28;20046;-75
2021/08/09 10:19:52;;;;;;;2.38;1.00;;;;;;;30.85;37.15;98349.50;5008465;28;20056;-74
2021/08/09 10:22:22;;;;;;;3.05;0.82;;;;;;;32.05;34.52;98347.97;5008278;28;20045;-73
2021/08/09 10:24:51;;;;;;;2.00;0.90;;;;;;;31.11;35.84;98348.81;5007811;28;20087;-75
2021/08/09 10:27:45;;;;;;;1.00;0.90;;;;;;;30.14;37.23;98348.13;5009662;28;20109;-78
2021/08/09 10:30:13;;;;;;;0.93;0.80;;;;;;;29.73;38.75;98345.16;5006869;28;20052;-74
2021/08/09 10:32:50;;;;;;;2.28;0.88;;;;;;;31.19;36.80;98358.84;5007142;28;20029;-73
2021/08/09 10:35:34;;;;;;;1.10;1.00;;;;;;;30.80;36.79;98350.75;5007070;28;20045;-73
2021/08/09 10:38:20;;;;;;;2.35;1.20;;;;;;;29.57;39.00;98333.59;5008243;28;20379;-74
2021/08/09 10:41:09;;;;;;;5.75;4.75;;;;;;;29.71;38.31;98344.78;5007868;28;20029;-72
2021/08/09 10:43:41;;;;;;;1.88;1.23;;;;;;;29.29;39.33;98347.06;4973708;28;20392;-74
2021/08/09 10:46:36;;;;;;;2.22;1.70;;;;;;;29.23;39.73;98332.53;5009531;28;20033;-74
2021/08/09 10:49:03;;;;;;;3.05;1.15;;;;;;;28.47;41.62;98327.53;5007370;28;20104;-74
2021/08/09 10:51:50;;;;;;;1.83;0.95;;;;;;;28.50;41.23;98335.19;5009189;28;20030;-76
2021/08/09 10:54:26;;;;;;;3.95;1.10;;;;;;;27.84;42.74;98333.16;5007619;28;20434;-76
2021/08/09 10:56:53;;;;;;;0.98;0.70;;;;;;;27.50;43.58;98325.03;5009156;28;20030;-77
2021/08/09 10:59:37;;;;;;;2.63;0.65;;;;;;;27.67;43.13;98332.72;5005826;28;20040;-79
2021/08/09 11:02:03;;;;;;;1.42;1.13;;;;;;;27.54;43.55;98320.25;5009418;28;20038;-75
2021/08/09 11:04:29;;;;;;;0.88;0.77;;;;;;;27.32;43.84;98321.34;5007671;28;20036;-75
2021/08/09 11:06:55;;;;;;;1.38;1.00;;;;;;;27.84;43.90;98313.47;5009598;28;20828;-74
2021/08/09 11:09:29;;;;;;;3.55;0.88;;;;;;;27.12;45.33;98323.72;5009672;28;20029;-75
2021/08/09 11:12:20;;;;;;;1.42;0.98;;;;;;;27.18;44.62;98331.75;5008108;28;20024;-74
2021/08/09 11:15:06;;;;;;;1.75;1.23;;;;;;;26.01;47.28;98319.75;5008909;28;20128;-76
2021/08/09 11:17:37;;;;;;;;;;;;;;;26.17;47.47;98316.72;5007892;28;20022;-72
2021/08/09 11:20:10;;;;;;;1.80;0.98;;;;;;;26.46;45.88;98313.72;5007000;28;19971;-73
2021/08/09 11:22:37;;;;;;;2.47;1.00;;;;;;;26.84;45.64;98309.56;5008629;28;20025;-77
2021/08/09 11:25:03;;;;;;;1.00;0.90;;;;;;;27.05;45.39;98306.81;5009735;28;20030;-75
2021/08/09 11:27:28;;;;;;;1.90;1.70;;;;;;;27.51;44.62;98308.97;5010808;28;20026;-75
2021/08/09 11:29:56;;;;;;;6.25;2.03;;;;;;;27.91;44.65;98311.44;5009217;28;20482;-77
2021/08/09 11:32:38;;;;;;;6.25;2.13;;;;;;;28.37;43.52;98297.38;5007985;28;20657;-72
2021/08/09 11:35:04;;;;;;;3.65;1.55;;;;;;;27.99;43.52;98301.00;5005564;28;20046;-72